Terminal Aerodrome Forecast
Issued by NWS

Home | Current Version | Previous Version | Text Only | Print | Product List | Glossary On
Versions: 1 2 3 4 5 6 7 8 9 10 11 12
191
FTUS46 KLOX 052351
TAFSBP
TAF
KSBP 052351Z 0600/0624 32008KT P6SM SCT250
     FM060300 VRB03KT P6SM SCT250
     FM062200 32009KT P6SM SKC=

USA.gov is the U.S. government's official web portal to all federal, state and local government web resources and services.